createdAt,value
2023-03-02T00:01:40.650Z,22.36
2023-03-02T00:04:11.352Z,22.34
2023-03-02T00:06:38.223Z,22.35
2023-03-02T00:09:06.495Z,22.31
2023-03-02T00:11:34.565Z,22.27
2023-03-02T00:14:01.761Z,22.28
2023-03-02T00:16:28.775Z,22.27
2023-03-02T00:18:58.086Z,22.25
2023-03-02T00:21:24.963Z,22.21
2023-03-02T00:23:52.604Z,22.17
2023-03-02T00:26:19.848Z,22.13
2023-03-02T00:28:47.047Z,22.08
2023-03-02T00:31:13.994Z,22.04
2023-03-02T00:33:41.044Z,21.96
2023-03-02T00:36:15.255Z,21.95
2023-03-02T00:38:42.224Z,21.92
2023-03-02T00:41:09.141Z,21.88
2023-03-02T00:43:36.012Z,21.83
2023-03-02T00:46:09.126Z,21.77
2023-03-02T00:48:36.262Z,21.73
2023-03-02T00:51:03.203Z,21.72
2023-03-02T00:53:34.204Z,21.68
2023-03-02T00:56:03.350Z,21.62
2023-03-02T00:58:30.603Z,21.61
2023-03-02T01:00:58.427Z,21.59
2023-03-02T01:03:25.694Z,21.54
2023-03-02T01:05:55.720Z,21.48
2023-03-02T01:08:23.388Z,21.47
2023-03-02T01:10:54.241Z,21.42
2023-03-02T01:13:21.447Z,21.39
2023-03-02T01:15:59.750Z,21.36
2023-03-02T01:18:26.740Z,21.32
2023-03-02T01:21:00.830Z,21.30
2023-03-02T01:23:27.804Z,21.27
2023-03-02T01:25:54.831Z,21.21
2023-03-02T01:28:21.761Z,21.19
2023-03-02T01:30:49.284Z,21.15
2023-03-02T01:33:21.542Z,21.12
2023-03-02T01:35:48.788Z,21.09
2023-03-02T01:38:15.941Z,21.06
2023-03-02T01:40:42.910Z,21.04
2023-03-02T01:43:12.741Z,21.00
2023-03-02T01:45:43.443Z,20.99
2023-03-02T01:48:11.748Z,20.95
2023-03-02T01:50:38.696Z,20.93
2023-03-02T01:53:06.069Z,20.91
2023-03-02T01:55:34.328Z,20.88
2023-03-02T01:58:01.430Z,20.85
2023-03-02T02:00:30.250Z,20.82
2023-03-02T02:03:09.153Z,20.80
2023-03-02T02:05:38.437Z,20.79
2023-03-02T02:08:06.062Z,20.78
2023-03-02T02:10:34.088Z,20.77
2023-03-02T02:13:01.623Z,20.75
2023-03-02T02:15:28.671Z,20.71
2023-03-02T02:17:55.914Z,20.69
2023-03-02T02:20:26.104Z,20.68
2023-03-02T02:22:59.457Z,20.64
2023-03-02T02:25:29.386Z,20.64
2023-03-02T02:27:56.659Z,20.60
2023-03-02T02:30:24.605Z,20.57
2023-03-02T02:32:53.714Z,20.55
2023-03-02T02:35:22.884Z,20.53
2023-03-02T02:37:52.676Z,20.49
2023-03-02T02:40:23.507Z,20.47
2023-03-02T02:42:54.539Z,20.47
2023-03-02T02:45:23.851Z,20.45
2023-03-02T02:47:51.361Z,20.42
2023-03-02T02:50:23.220Z,20.38
2023-03-02T02:52:53.772Z,20.36
2023-03-02T02:55:21.672Z,20.34
2023-03-02T02:57:49.412Z,20.32
2023-03-02T03:00:18.903Z,20.29
2023-03-02T03:02:47.994Z,20.28
2023-03-02T03:05:15.652Z,20.27
2023-03-02T03:07:44.643Z,20.23
2023-03-02T03:10:14.275Z,20.20
2023-03-02T03:12:42.099Z,20.19
2023-03-02T03:15:09.039Z,20.17
2023-03-02T03:17:35.928Z,20.16
2023-03-02T03:20:06.636Z,20.14
2023-03-02T03:22:35.475Z,20.10
2023-03-02T03:25:02.340Z,20.09
2023-03-02T03:27:29.063Z,20.08
2023-03-02T03:29:55.839Z,20.06
2023-03-02T03:32:22.742Z,20.06
2023-03-02T03:34:49.543Z,20.03
2023-03-02T03:37:18.026Z,19.99
2023-03-02T03:39:45.213Z,19.98
2023-03-02T03:42:12.382Z,19.95
2023-03-02T03:44:39.124Z,19.94
2023-03-02T03:47:08.318Z,19.92
2023-03-02T03:49:37.256Z,19.89
2023-03-02T03:52:06.411Z,19.87
2023-03-02T03:54:33.190Z,19.86
2023-03-02T03:57:04.271Z,19.85
2023-03-02T03:59:31.177Z,19.82
2023-03-02T04:01:59.996Z,19.82
2023-03-02T04:04:28.637Z,19.77
2023-03-02T04:06:55.805Z,19.77
2023-03-02T04:09:23.175Z,19.75
2023-03-02T04:11:50.840Z,19.72
2023-03-02T04:14:19.234Z,19.72
2023-03-02T04:16:46.003Z,19.70
2023-03-02T04:19:13.401Z,19.67
2023-03-02T04:21:41.586Z,19.67
2023-03-02T04:24:08.866Z,19.65
2023-03-02T04:26:36.414Z,19.62
2023-03-02T04:29:03.631Z,19.62
2023-03-02T04:31:33.191Z,19.59
2023-03-02T04:34:00.508Z,19.57
2023-03-02T04:36:27.445Z,19.55
2023-03-02T04:38:56.432Z,19.54
2023-03-02T04:41:23.382Z,19.50
2023-03-02T04:43:50.098Z,19.49
2023-03-02T04:46:20.115Z,19.48
2023-03-02T04:48:47.112Z,19.46
2023-03-02T04:51:17.099Z,19.45
2023-03-02T04:53:43.994Z,19.44
2023-03-02T04:56:10.922Z,19.40
2023-03-02T04:58:37.690Z,19.39
2023-03-02T05:01:04.680Z,19.37
2023-03-02T05:03:31.529Z,19.36
2023-03-02T05:05:58.294Z,19.35
2023-03-02T05:08:25.048Z,19.35
2023-03-02T05:10:51.831Z,19.32
2023-03-02T05:13:18.727Z,19.29
2023-03-02T05:15:45.476Z,19.27
2023-03-02T05:18:12.807Z,19.25
2023-03-02T05:20:39.955Z,19.24
2023-03-02T05:23:08.828Z,19.30
2023-03-02T05:25:36.639Z,19.38
2023-03-02T05:28:03.700Z,19.45
2023-03-02T05:30:32.680Z,19.50
2023-03-02T05:33:01.819Z,19.55
2023-03-02T05:35:28.670Z,19.60
2023-03-02T05:37:57.901Z,19.65
2023-03-02T05:40:24.754Z,19.69
2023-03-02T05:42:51.870Z,19.73
2023-03-02T05:45:20.577Z,19.77
2023-03-02T05:47:48.148Z,19.82
2023-03-02T05:50:14.995Z,19.86
2023-03-02T05:52:41.762Z,19.91
2023-03-02T05:55:09.262Z,19.98
2023-03-02T05:57:36.061Z,20.04
2023-03-02T06:00:02.907Z,20.09
2023-03-02T06:02:29.730Z,20.14
2023-03-02T06:04:56.758Z,20.20
2023-03-02T06:07:23.780Z,20.25
2023-03-02T06:09:51.269Z,20.31
2023-03-02T06:12:18.383Z,20.36
2023-03-02T06:14:45.240Z,20.41
2023-03-02T06:17:11.974Z,20.46
2023-03-02T06:19:38.722Z,20.50
2023-03-02T06:22:05.558Z,20.55
2023-03-02T06:24:32.329Z,20.61
2023-03-02T06:26:59.169Z,20.65
2023-03-02T06:29:26.008Z,20.70
2023-03-02T06:31:52.800Z,20.74
2023-03-02T06:34:19.618Z,20.78
2023-03-02T06:36:46.436Z,20.83
2023-03-02T06:39:16.059Z,20.86
2023-03-02T06:41:43.483Z,20.91
2023-03-02T06:44:10.289Z,20.95
2023-03-02T06:46:37.592Z,21.00
2023-03-02T06:49:04.883Z,21.04
2023-03-02T06:51:32.172Z,21.09
2023-03-02T06:53:59.942Z,21.12
2023-03-02T06:56:27.451Z,21.16
2023-03-02T06:58:54.281Z,21.21
2023-03-02T07:01:21.177Z,21.24
2023-03-02T07:03:48.153Z,21.29
2023-03-02T07:06:15.098Z,21.32
2023-03-02T07:08:41.862Z,21.36
2023-03-02T07:11:09.432Z,21.39
2023-03-02T07:13:38.174Z,21.41
2023-03-02T07:16:07.258Z,21.43
2023-03-02T07:18:36.319Z,21.46
2023-03-02T07:21:03.447Z,21.48
2023-03-02T07:23:30.313Z,21.50
2023-03-02T07:25:58.106Z,21.51
2023-03-02T07:28:25.540Z,21.50
2023-03-02T07:30:53.513Z,21.52
2023-03-02T07:33:22.796Z,21.50
2023-03-02T07:35:49.623Z,21.50
2023-03-02T07:38:17.048Z,21.49
2023-03-02T07:40:45.098Z,21.48
2023-03-02T07:43:11.957Z,21.37
2023-03-02T07:45:39.188Z,21.24
2023-03-02T07:48:06.234Z,21.06
2023-03-02T07:50:33.248Z,21.05
2023-03-02T07:53:02.329Z,21.13
2023-03-02T07:55:29.149Z,21.12
2023-03-02T07:57:56.163Z,21.11
2023-03-02T08:00:23.251Z,21.11
2023-03-02T08:02:50.175Z,21.06
2023-03-02T08:05:17.201Z,21.05
2023-03-02T08:07:46.561Z,21.02
2023-03-02T08:10:13.443Z,21.03
2023-03-02T08:12:40.416Z,21.01
2023-03-02T08:15:07.820Z,20.98
2023-03-02T08:17:34.691Z,20.97
2023-03-02T08:20:01.815Z,20.99
2023-03-02T08:22:28.651Z,20.99
2023-03-02T08:24:59.934Z,21.00
2023-03-02T08:27:27.062Z,21.02
2023-03-02T08:29:56.453Z,21.02
2023-03-02T08:32:23.493Z,21.06
2023-03-02T08:34:52.114Z,21.07
2023-03-02T08:37:21.614Z,21.12
2023-03-02T08:39:48.696Z,21.11
2023-03-02T08:42:15.776Z,21.18
2023-03-02T08:44:42.916Z,21.22
2023-03-02T08:47:09.772Z,21.22
2023-03-02T08:49:38.432Z,21.19
2023-03-02T08:52:05.352Z,21.20
2023-03-02T08:54:34.649Z,21.18
2023-03-02T08:57:02.404Z,21.16
2023-03-02T08:59:29.626Z,21.16
2023-03-02T09:01:56.587Z,21.12
2023-03-02T09:04:23.608Z,21.09
2023-03-02T09:06:50.616Z,21.07
2023-03-02T09:09:17.697Z,21.06
2023-03-02T09:11:45.162Z,21.05
2023-03-02T09:14:30.123Z,21.03
2023-03-02T09:16:57.505Z,21.00
2023-03-02T09:19:24.418Z,20.96
2023-03-02T09:21:51.417Z,20.96
2023-03-02T09:24:18.879Z,20.95
2023-03-02T09:26:45.855Z,20.92
2023-03-02T09:29:13.654Z,20.91
2023-03-02T09:31:40.553Z,20.90
2023-03-02T09:34:41.162Z,20.88
2023-03-02T09:37:09.002Z,20.85
2023-03-02T09:39:37.330Z,20.85
2023-03-02T09:42:07.482Z,20.85
2023-03-02T09:44:37.375Z,20.84
2023-03-02T09:47:05.346Z,20.81
2023-03-02T09:49:40.506Z,20.79
2023-03-02T09:52:11.969Z,20.74
2023-03-02T09:54:40.320Z,20.70
2023-03-02T09:57:20.094Z,20.66
2023-03-02T09:59:49.274Z,20.66
2023-03-02T10:02:19.191Z,20.68
2023-03-02T10:04:48.201Z,20.73
2023-03-02T10:07:16.753Z,20.75
2023-03-02T10:09:43.791Z,20.76
2023-03-02T10:12:13.831Z,20.78
2023-03-02T10:14:44.260Z,20.81
2023-03-02T10:17:14.243Z,20.85
2023-03-02T10:19:45.309Z,20.91
2023-03-02T10:22:15.195Z,20.97
2023-03-02T10:24:45.275Z,21.00
2023-03-02T10:27:13.602Z,21.02
2023-03-02T10:29:43.702Z,21.05
2023-03-02T10:32:13.701Z,21.09
2023-03-02T10:34:40.858Z,21.08
2023-03-02T10:37:10.845Z,21.07
2023-03-02T10:39:37.868Z,21.08
2023-03-02T10:42:07.714Z,21.07
2023-03-02T10:44:38.091Z,21.06
2023-03-02T10:47:05.919Z,21.08
2023-03-02T10:49:34.343Z,21.10
2023-03-02T10:52:02.673Z,21.09
2023-03-02T10:54:49.725Z,21.10
2023-03-02T10:57:20.167Z,21.08
2023-03-02T10:59:47.856Z,21.11
2023-03-02T11:02:18.276Z,21.09
2023-03-02T11:04:45.838Z,21.10
2023-03-02T11:07:16.093Z,21.11
2023-03-02T11:09:43.568Z,21.10
2023-03-02T11:12:15.856Z,21.12
2023-03-02T11:14:44.909Z,21.08
2023-03-02T11:17:14.850Z,21.09
2023-03-02T11:19:42.373Z,21.08
2023-03-02T11:22:16.808Z,21.05
2023-03-02T11:24:48.652Z,21.06
2023-03-02T11:27:20.579Z,21.08
2023-03-02T11:29:51.415Z,21.05
2023-03-02T11:32:20.563Z,21.04
2023-03-02T11:34:47.998Z,21.02
2023-03-02T11:37:19.032Z,21.01
2023-03-02T11:39:55.637Z,21.02
2023-03-02T11:42:25.076Z,20.99
2023-03-02T11:44:52.123Z,20.95
2023-03-02T11:47:20.984Z,20.98
2023-03-02T11:49:54.316Z,20.92
2023-03-02T11:52:22.655Z,20.89
2023-03-02T11:54:52.936Z,20.89
2023-03-02T11:57:22.977Z,20.90
2023-03-02T11:59:51.139Z,20.87
2023-03-02T12:02:18.755Z,20.90
2023-03-02T12:04:47.399Z,20.86
2023-03-02T12:07:17.547Z,20.88
2023-03-02T12:09:56.624Z,20.84
2023-03-02T12:12:26.746Z,20.82
2023-03-02T12:14:53.817Z,20.78
2023-03-02T12:17:23.913Z,20.78
2023-03-02T12:19:54.703Z,20.77
2023-03-02T12:22:24.678Z,20.78
2023-03-02T12:24:59.482Z,20.77
2023-03-02T12:27:27.557Z,20.73
2023-03-02T12:29:57.656Z,20.74
2023-03-02T12:32:26.394Z,20.71
2023-03-02T12:34:55.366Z,20.68
2023-03-02T12:37:25.309Z,20.68
2023-03-02T12:39:55.339Z,20.68
2023-03-02T12:42:25.293Z,20.63
2023-03-02T12:44:59.982Z,20.65
2023-03-02T12:47:30.249Z,20.66
2023-03-02T12:49:59.105Z,20.60
2023-03-02T12:52:27.697Z,20.61
2023-03-02T12:54:57.807Z,20.65
2023-03-02T12:57:24.779Z,20.63
2023-03-02T12:59:53.304Z,20.60
2023-03-02T13:02:22.278Z,20.59
2023-03-02T13:04:52.237Z,20.62
2023-03-02T13:07:20.594Z,20.63
2023-03-02T13:09:56.346Z,20.63
2023-03-02T13:12:25.685Z,20.63
2023-03-02T13:14:54.683Z,20.65
2023-03-02T13:17:24.741Z,20.62
2023-03-02T13:19:52.060Z,20.59
2023-03-02T13:22:23.534Z,20.62
2023-03-02T13:24:55.335Z,20.60
2023-03-02T13:27:23.675Z,20.57
2023-03-02T13:29:53.125Z,20.53
2023-03-02T13:32:23.302Z,20.55
2023-03-02T13:34:53.390Z,20.52
2023-03-02T13:37:23.444Z,20.50
2023-03-02T13:39:53.533Z,20.47
2023-03-02T13:42:23.587Z,20.46
2023-03-02T13:44:54.256Z,20.46
2023-03-02T13:47:23.812Z,20.42
2023-03-02T13:49:51.076Z,20.40
2023-03-02T13:52:22.828Z,20.40
2023-03-02T13:54:52.843Z,20.37
2023-03-02T13:57:29.698Z,20.36
2023-03-02T13:59:58.234Z,20.34
2023-03-02T14:02:25.608Z,20.31
2023-03-02T14:04:53.212Z,20.32
2023-03-02T14:07:21.615Z,20.29
2023-03-02T14:09:48.879Z,20.30
2023-03-02T14:12:19.017Z,20.26
2023-03-02T14:14:45.920Z,20.25
2023-03-02T14:17:14.838Z,20.24
2023-03-02T14:19:41.891Z,20.22
2023-03-02T14:22:13.676Z,20.22
2023-03-02T14:24:43.500Z,20.19
2023-03-02T14:27:14.201Z,20.16
2023-03-02T14:29:51.492Z,20.16
2023-03-02T14:32:18.792Z,20.12
2023-03-02T14:34:45.781Z,20.14
2023-03-02T14:37:14.837Z,20.10
2023-03-02T14:39:43.498Z,20.08
2023-03-02T14:42:12.845Z,20.09
2023-03-02T14:44:48.167Z,20.07
2023-03-02T14:47:16.868Z,20.05
2023-03-02T14:49:43.967Z,20.04
2023-03-02T14:52:14.256Z,20.04
2023-03-02T14:54:46.970Z,20.02
2023-03-02T14:57:16.975Z,20.01
2023-03-02T14:59:46.091Z,19.98
2023-03-02T15:02:24.691Z,19.96
2023-03-02T15:04:56.512Z,19.95
2023-03-02T15:07:24.667Z,19.97
2023-03-02T15:09:51.647Z,20.01
2023-03-02T15:12:18.582Z,20.04
2023-03-02T15:14:48.467Z,20.07
2023-03-02T15:17:15.438Z,20.13
2023-03-02T15:19:42.317Z,20.18
2023-03-02T15:22:09.276Z,20.25
2023-03-02T15:24:43.269Z,20.30
2023-03-02T15:27:10.377Z,20.38
2023-03-02T15:29:37.596Z,20.44
2023-03-02T15:32:06.106Z,20.51
2023-03-02T15:34:33.157Z,20.57
2023-03-02T15:37:00.050Z,20.66
2023-03-02T15:39:26.913Z,20.73
2023-03-02T15:41:54.472Z,20.80
2023-03-02T15:44:49.881Z,20.84
2023-03-02T15:47:18.258Z,20.92
2023-03-02T15:49:45.668Z,20.99
2023-03-02T15:52:16.050Z,21.04
2023-03-02T15:54:45.187Z,21.03
2023-03-02T15:57:16.363Z,21.10
2023-03-02T15:59:46.546Z,21.18
2023-03-02T16:02:15.696Z,21.23
2023-03-02T16:04:57.021Z,21.26
2023-03-02T16:07:37.657Z,21.29
2023-03-02T16:10:05.307Z,21.28
2023-03-02T16:12:32.236Z,21.28
2023-03-02T16:14:59.259Z,21.28
2023-03-02T16:17:26.577Z,21.27
2023-03-02T16:19:53.827Z,21.27
2023-03-02T16:22:20.704Z,21.32
2023-03-02T16:24:49.197Z,21.38
2023-03-02T16:27:16.284Z,21.45
2023-03-02T16:29:43.725Z,21.48
2023-03-02T16:32:11.027Z,21.51
2023-03-02T16:34:38.391Z,21.53
2023-03-02T16:37:12.447Z,21.54
2023-03-02T16:39:56.902Z,21.50
2023-03-02T16:42:24.245Z,21.52
2023-03-02T16:44:55.659Z,21.47
2023-03-02T16:47:35.107Z,21.49
2023-03-02T16:50:03.848Z,21.45
2023-03-02T16:52:30.996Z,21.44
2023-03-02T16:54:58.041Z,21.42
2023-03-02T16:57:25.324Z,21.45
2023-03-02T16:59:52.436Z,21.43
2023-03-02T17:02:19.489Z,21.40
2023-03-02T17:04:46.735Z,21.36
2023-03-02T17:07:16.676Z,21.34
2023-03-02T17:09:43.555Z,21.32
2023-03-02T17:12:10.606Z,21.28
2023-03-02T17:14:39.866Z,21.25
2023-03-02T17:17:06.875Z,21.23
2023-03-02T17:19:33.742Z,21.22
2023-03-02T17:22:02.272Z,21.20
2023-03-02T17:24:43.536Z,21.18
2023-03-02T17:27:24.059Z,21.18
2023-03-02T17:29:52.263Z,21.15
2023-03-02T17:32:20.735Z,21.16
2023-03-02T17:34:48.574Z,21.14
2023-03-02T17:37:17.859Z,21.13
2023-03-02T17:39:45.023Z,21.10
2023-03-02T17:42:11.989Z,21.09
2023-03-02T17:44:39.453Z,21.08
2023-03-02T17:47:08.843Z,21.05
2023-03-02T17:49:40.363Z,21.03
2023-03-02T17:52:08.408Z,21.00
2023-03-02T17:54:38.364Z,21.00
2023-03-02T17:57:06.017Z,20.97
2023-03-02T17:59:36.491Z,20.96
2023-03-02T18:02:10.269Z,20.92
2023-03-02T18:04:37.832Z,20.90
2023-03-02T18:07:06.585Z,20.89
2023-03-02T18:09:34.914Z,20.84
2023-03-02T18:12:04.870Z,20.86
2023-03-02T18:14:32.810Z,20.83
2023-03-02T18:17:08.584Z,20.80
2023-03-02T18:19:37.326Z,20.76
2023-03-02T18:22:04.943Z,20.75
2023-03-02T18:24:32.785Z,20.70
2023-03-02T18:26:59.863Z,20.71
2023-03-02T18:29:27.253Z,20.67
2023-03-02T18:31:54.469Z,20.66
2023-03-02T18:34:21.746Z,20.67
2023-03-02T18:36:48.751Z,20.64
2023-03-02T18:39:15.748Z,20.63
2023-03-02T18:41:44.899Z,20.67
2023-03-02T18:44:12.247Z,20.71
2023-03-02T18:46:39.435Z,20.73
2023-03-02T18:49:06.950Z,20.78
2023-03-02T18:51:34.248Z,20.84
2023-03-02T18:54:23.760Z,20.86
2023-03-02T18:56:51.582Z,20.92
2023-03-02T18:59:20.532Z,20.97
2023-03-02T19:01:47.752Z,20.99
2023-03-02T19:04:15.217Z,21.01
2023-03-02T19:06:42.507Z,21.04
2023-03-02T19:09:09.738Z,21.06
2023-03-02T19:11:37.230Z,21.07
2023-03-02T19:14:10.407Z,21.07
2023-03-02T19:16:37.846Z,21.09
2023-03-02T19:19:05.018Z,21.09
2023-03-02T19:21:31.904Z,21.13
2023-03-02T19:23:58.864Z,21.12
2023-03-02T19:26:26.064Z,21.11
2023-03-02T19:28:53.161Z,21.15
2023-03-02T19:31:20.044Z,21.16
2023-03-02T19:33:46.955Z,21.17
2023-03-02T19:36:14.313Z,21.16
2023-03-02T19:38:43.113Z,21.18
2023-03-02T19:41:12.411Z,21.16
2023-03-02T19:43:40.697Z,21.15
2023-03-02T19:46:10.967Z,21.14
2023-03-02T19:48:38.476Z,21.15
2023-03-02T19:51:06.091Z,21.12
2023-03-02T19:53:33.343Z,21.14
2023-03-02T19:56:03.250Z,21.12
2023-03-02T19:58:32.455Z,21.12
2023-03-02T20:00:59.441Z,21.08
2023-03-02T20:03:26.374Z,21.10
2023-03-02T20:05:54.692Z,21.09
2023-03-02T20:08:25.606Z,21.07
2023-03-02T20:10:52.745Z,21.04
2023-03-02T20:13:21.049Z,21.05
2023-03-02T20:15:53.228Z,21.03
2023-03-02T20:18:21.729Z,21.03
2023-03-02T20:20:50.648Z,21.06
2023-03-02T20:23:18.736Z,21.08
2023-03-02T20:25:48.396Z,21.11
2023-03-02T20:28:18.227Z,21.13
2023-03-02T20:30:48.816Z,21.19
2023-03-02T20:33:18.726Z,21.22
2023-03-02T20:35:46.575Z,21.26
2023-03-02T20:38:16.120Z,21.28
2023-03-02T20:40:43.458Z,21.29
2023-03-02T20:43:10.493Z,21.31
2023-03-02T20:45:37.997Z,21.34
2023-03-02T20:48:05.670Z,21.35
2023-03-02T20:50:36.353Z,21.35
2023-03-02T20:53:04.228Z,21.35
2023-03-02T20:55:31.192Z,21.33
2023-03-02T20:57:58.216Z,21.34
2023-03-02T21:00:26.586Z,21.34
2023-03-02T21:02:53.442Z,21.35
2023-03-02T21:05:21.103Z,21.34
2023-03-02T21:07:48.223Z,21.38
2023-03-02T21:10:17.106Z,21.34
2023-03-02T21:12:44.765Z,21.38
2023-03-02T21:15:12.147Z,21.36
2023-03-02T21:17:42.077Z,21.37
2023-03-02T21:20:09.697Z,21.36
2023-03-02T21:22:36.897Z,21.34
2023-03-02T21:25:04.128Z,21.35
2023-03-02T21:27:31.140Z,21.31
2023-03-02T21:29:58.090Z,21.30
2023-03-02T21:32:25.406Z,21.32
2023-03-02T21:34:52.722Z,21.29
2023-03-02T21:37:19.703Z,21.28
2023-03-02T21:39:46.508Z,21.24
2023-03-02T21:42:13.535Z,21.23
2023-03-02T21:44:40.432Z,21.21
2023-03-02T21:47:07.304Z,21.22
2023-03-02T21:49:36.739Z,21.18
2023-03-02T21:52:04.292Z,21.15
2023-03-02T21:54:31.109Z,21.16
2023-03-02T21:56:58.030Z,21.15
2023-03-02T21:59:24.889Z,21.10
2023-03-02T22:01:51.903Z,21.10
2023-03-02T22:04:18.715Z,21.09
2023-03-02T22:06:45.595Z,21.06
2023-03-02T22:09:12.527Z,21.05
2023-03-02T22:11:39.593Z,21.04
2023-03-02T22:14:11.763Z,20.98
2023-03-02T22:16:40.428Z,20.89
2023-03-02T22:19:20.703Z,20.92
2023-03-02T22:21:48.024Z,20.91
2023-03-02T22:24:20.790Z,20.91
2023-03-02T22:26:50.572Z,20.91
2023-03-02T22:29:17.808Z,20.92
2023-03-02T22:31:47.672Z,20.89
2023-03-02T22:34:18.178Z,20.86
2023-03-02T22:36:46.493Z,20.85
2023-03-02T22:39:17.470Z,20.85
2023-03-02T22:41:44.317Z,20.84
2023-03-02T22:44:12.238Z,20.79
2023-03-02T22:46:39.593Z,20.78
2023-03-02T22:49:09.639Z,20.74
2023-03-02T22:51:36.555Z,20.69
2023-03-02T22:54:03.290Z,20.71
2023-03-02T22:56:32.012Z,20.67
2023-03-02T22:59:05.549Z,20.63
2023-03-02T23:01:35.790Z,20.63
2023-03-02T23:04:13.168Z,20.61
2023-03-02T23:06:46.108Z,20.63
2023-03-02T23:09:15.089Z,20.62
2023-03-02T23:11:42.720Z,20.63
2023-03-02T23:14:13.649Z,20.66
2023-03-02T23:16:41.896Z,20.67
2023-03-02T23:19:09.510Z,20.71
2023-03-02T23:21:40.075Z,20.75
2023-03-02T23:24:10.388Z,20.80
2023-03-02T23:26:37.933Z,20.84
2023-03-02T23:29:06.059Z,20.86
2023-03-02T23:31:33.914Z,20.90
2023-03-02T23:34:03.284Z,20.93
2023-03-02T23:36:32.153Z,20.96
2023-03-02T23:38:58.924Z,20.97
2023-03-02T23:41:26.287Z,20.99
2023-03-02T23:43:54.163Z,21.01
2023-03-02T23:46:21.259Z,21.01
2023-03-02T23:48:48.709Z,21.01
2023-03-02T23:51:16.092Z,21.01
2023-03-02T23:53:42.868Z,21.01
2023-03-02T23:56:09.764Z,21.02
2023-03-02T23:58:38.754Z,21.04
